Time;durP1;ratioP1;P1;durP2;ratioP2;P2;SDS_P1;SDS_P2;PMS_P1;PMS_P2;Temp;Humidity;BMP_temperature;BMP_pressure;BME280_temperature;BME280_humidity;BME280_pressure;Samples;Min_cycle;Max_cycle;Signal;HPM_P1;HPM_P2
2022/09/11 00:01:02;;;;;;;8.38;4.03;;;;;;;11.76;100.00;100805.88;1735976;82;20933;-38
2022/09/11 00:03:30;;;;;;;5.53;4.00;;;;;;;11.71;100.00;100808.53;1736019;81;21000;-38
2022/09/11 00:06:07;;;;;;;17.92;4.28;;;;;;;11.66;100.00;100801.28;1715070;82;21244;-38
2022/09/11 00:08:37;;;;;;;12.73;3.87;;;;;;;11.62;100.00;100799.63;1735844;82;21569;-38
2022/09/11 00:11:06;;;;;;;7.72;3.87;;;;;;;11.57;100.00;100792.38;1735981;82;21581;-38
2022/09/11 00:13:33;;;;;;;9.65;4.17;;;;;;;11.53;100.00;100792.02;1736107;82;20901;-38
2022/09/11 00:16:04;;;;;;;11.45;3.60;;;;;;;11.48;100.00;100781.27;1736064;82;21569;-38
2022/09/11 00:18:34;;;;;;;12.68;3.85;;;;;;;11.43;100.00;100773.17;1735958;82;21219;-38
2022/09/11 00:20:59;;;;;;;10.60;3.65;;;;;;;11.43;100.00;100771.88;1735666;82;21020;-38
2022/09/11 00:23:26;;;;;;;12.15;2.98;;;;;;;11.42;100.00;100769.71;1735888;82;20890;-38
2022/09/11 00:25:54;;;;;;;21.23;4.05;;;;;;;11.40;100.00;100763.70;1735890;82;20901;-38
2022/09/11 00:28:23;;;;;;;8.95;3.72;;;;;;;11.43;100.00;100764.94;1715103;82;21106;-38
2022/09/11 00:31:00;;;;;;;7.37;3.95;;;;;;;11.41;100.00;100766.70;1735794;82;21035;-38
2022/09/11 00:33:27;;;;;;;13.15;3.20;;;;;;;11.41;100.00;100758.93;1734879;82;20934;-38
2022/09/11 00:36:00;;;;;;;17.17;2.98;;;;;;;11.41;100.00;100755.05;1733066;82;20972;-38
2022/09/11 00:38:29;;;;;;;9.63;3.55;;;;;;;11.41;100.00;100749.86;1735964;82;20933;-38
2022/09/11 00:40:58;;;;;;;14.98;3.55;;;;;;;11.44;100.00;100743.32;1715025;81;20980;-38
2022/09/11 00:43:26;;;;;;;14.50;3.85;;;;;;;11.44;100.00;100744.62;1735950;82;21146;-38
2022/09/11 00:46:02;;;;;;;21.97;3.62;;;;;;;11.44;100.00;100751.55;1714943;82;21035;-38
2022/09/11 00:48:34;;;;;;;8.83;3.60;;;;;;;11.43;100.00;100744.66;1736314;82;24814;-38
2022/09/11 00:51:02;;;;;;;9.63;3.50;;;;;;;11.43;100.00;100741.61;1735798;82;21415;-38
2022/09/11 00:53:32;;;;;;;6.33;3.27;;;;;;;11.39;100.00;100731.34;1736101;82;20936;-38
2022/09/11 00:56:01;;;;;;;7.85;3.25;;;;;;;11.36;100.00;100730.95;1735873;82;21918;-38
2022/09/11 00:58:31;;;;;;;8.65;2.40;;;;;;;11.38;100.00;100729.64;1735927;82;20976;-38
2022/09/11 01:00:58;;;;;;;5.40;2.60;;;;;;;11.44;96.43;100729.06;1736079;82;20925;-38
2022/09/11 01:03:26;;;;;;;11.38;2.62;;;;;;;11.55;94.85;100722.85;1715190;82;20914;-38
2022/09/11 01:05:53;;;;;;;3.62;2.33;;;;;;;11.61;94.05;100726.62;1735814;81;21557;-38
2022/09/11 01:08:21;;;;;;;3.95;2.12;;;;;;;11.67;92.69;100717.88;1735928;82;21138;-38
2022/09/11 01:11:12;;;;;;;9.55;2.27;;;;;;;11.70;91.75;100713.47;1715155;82;20976;-38
2022/09/11 01:13:43;;;;;;;4.10;2.27;;;;;;;11.76;89.68;100712.51;1719825;82;21024;-38
2022/09/11 01:16:33;;;;;;;3.85;2.30;;;;;;;11.85;88.24;100705.00;1715185;82;20972;-38
2022/09/11 01:19:29;;;;;;;9.08;2.47;;;;;;;11.90;86.88;100700.56;1735916;82;20884;-38
2022/09/11 01:22:25;;;;;;;6.83;2.25;;;;;;;11.99;85.67;100696.94;1734719;82;22149;-38
2022/09/11 01:25:18;;;;;;;7.12;2.25;;;;;;;12.03;84.54;100699.48;1736299;82;20973;-38
2022/09/11 01:27:59;;;;;;;6.87;2.00;;;;;;;12.07;83.53;100707.60;1732548;82;21499;-38
2022/09/11 01:30:37;;;;;;;5.72;2.45;;;;;;;12.12;82.42;100705.35;1715359;82;20897;-38
2022/09/11 01:33:29;;;;;;;6.92;2.08;;;;;;;12.15;82.93;100706.58;1735927;82;20984;-39
2022/09/11 01:36:08;;;;;;;6.50;1.87;;;;;;;12.13;82.37;100702.73;1736084;82;22084;-39
2022/09/11 01:38:51;;;;;;;17.00;2.27;;;;;;;12.09;85.51;100693.74;1735691;82;20933;-39
2022/09/11 01:41:26;;;;;;;5.58;2.12;;;;;;;11.99;87.04;100689.98;1735791;81;20996;-39
2022/09/11 01:44:05;;;;;;;2.52;2.05;;;;;;;11.86;88.47;100693.27;1735720;82;20928;-38
2022/09/11 01:46:39;;;;;;;5.95;1.77;;;;;;;11.71;89.51;100686.66;1735730;82;20921;-38
2022/09/11 01:49:16;;;;;;;5.22;1.95;;;;;;;11.58;92.06;100686.49;1735746;82;21203;-38
2022/09/11 01:51:44;;;;;;;9.40;1.87;;;;;;;11.43;92.20;100680.70;1735806;81;21056;-38
2022/09/11 01:54:14;;;;;;;6.05;1.90;;;;;;;11.33;92.80;100668.80;1735861;82;20949;-38
2022/09/11 01:56:47;;;;;;;7.67;2.17;;;;;;;11.24;94.12;100670.24;1735936;81;21015;-38
2022/09/11 01:59:17;;;;;;;6.72;2.10;;;;;;;11.18;94.92;100666.05;1737384;82;21426;-38
2022/09/11 02:01:49;;;;;;;4.58;1.80;;;;;;;11.12;94.65;100667.00;1735920;82;21133;-38
2022/09/11 02:05:59;;;;;;;7.72;1.82;;;;;;;11.14;93.37;100662.64;1816144;79;23253;-37
2022/09/11 02:08:46;;;;;;;9.33;1.87;;;;;;;11.12;92.40;100647.57;1789269;80;20936;-37
2022/09/11 02:11:16;;;;;;;7.30;2.20;;;;;;;11.17;92.02;100650.93;1789133;80;21058;-37
2022/09/11 02:14:00;;;;;;;6.78;1.72;;;;;;;11.29;86.57;100643.83;1789225;80;21410;-37
2022/09/11 02:16:53;;;;;;;7.58;2.08;;;;;;;11.43;86.10;100643.58;1789304;80;21650;-37
2022/09/11 02:19:27;;;;;;;13.32;2.30;;;;;;;11.55;85.07;100650.27;1758458;80;20920;-38
2022/09/11 02:21:54;;;;;;;6.85;2.00;;;;;;;11.63;84.26;100644.05;1789261;80;20971;-38
2022/09/11 02:24:21;;;;;;;9.03;2.50;;;;;;;11.68;82.19;100641.34;1789128;80;21137;-38
2022/09/11 02:26:55;;;;;;;7.58;2.17;;;;;;;11.77;81.26;100638.58;1789299;80;20940;-38
2022/09/11 02:29:23;;;;;;;8.65;2.33;;;;;;;11.87;81.78;100647.03;1772425;80;20986;-37
2022/09/11 02:31:51;;;;;;;9.13;2.12;;;;;;;11.90;81.41;100640.91;1760430;81;20970;-37
2022/09/11 02:34:24;;;;;;;2.27;2.08;;;;;;;11.93;80.69;100643.43;1755681;80;20912;-37
2022/09/11 02:37:39;;;;;;;9.20;1.98;;;;;;;11.97;79.88;100635.16;1755541;81;21237;-37
2022/09/11 02:40:28;;;;;;;3.95;1.87;;;;;;;12.01;77.44;100641.58;1760935;81;21003;-38
2022/09/11 02:43:14;;;;;;;4.50;1.98;;;;;;;12.12;76.43;100634.83;1760302;81;20943;-38
2022/09/11 02:46:06;;;;;;;5.50;2.20;;;;;;;12.18;77.20;100636.45;1760456;79;20912;-37
2022/09/11 02:48:59;;;;;;;5.70;1.95;;;;;;;12.17;77.41;100629.55;1760434;81;21002;-38
2022/09/11 02:51:45;;;;;;;11.88;2.00;;;;;;;12.14;76.71;100634.81;1760593;81;22038;-37
2022/09/11 02:54:36;;;;;;;5.92;2.25;;;;;;;12.15;76.52;100626.14;1760426;81;20940;-38
2022/09/11 02:57:13;;;;;;;5.67;2.15;;;;;;;12.14;76.28;100624.44;1760445;81;20921;-37
2022/09/11 02:59:45;;;;;;;3.72;1.70;;;;;;;12.15;76.23;100616.63;1760467;81;21458;-38
2022/09/11 03:02:13;;;;;;;7.85;2.00;;;;;;;12.18;76.30;100614.39;1760632;81;21505;-38
2022/09/11 03:04:40;;;;;;;4.33;2.02;;;;;;;12.17;75.76;100614.85;1755388;80;21104;-38
2022/09/11 03:07:08;;;;;;;3.67;1.95;;;;;;;12.23;75.20;100611.70;1747260;82;21454;-38
2022/09/11 03:09:37;;;;;;;3.00;1.92;;;;;;;12.26;74.91;100622.88;1747487;82;20917;-38
2022/09/11 03:12:06;;;;;;;16.10;2.33;;;;;;;12.28;75.74;100627.59;1747140;82;20857;-38
2022/09/11 03:14:37;;;;;;;4.67;1.65;;;;;;;12.27;75.56;100625.88;1747391;82;20926;-38
2022/09/11 03:17:04;;;;;;;6.28;1.77;;;;;;;12.24;75.65;100628.52;1712270;82;21029;-38
2022/09/11 03:19:33;;;;;;;8.63;2.15;;;;;;;12.23;75.97;100619.02;1746650;82;20920;-38
2022/09/11 03:22:01;;;;;;;6.78;2.00;;;;;;;12.24;75.81;100623.78;1736941;82;21565;-38
2022/09/11 03:24:28;;;;;;;7.75;2.25;;;;;;;12.23;75.31;100615.13;1747053;82;21431;-38
2022/09/11 03:26:55;;;;;;;6.67;2.35;;;;;;;12.23;75.76;100616.42;1746889;82;20881;-38
2022/09/11 03:29:22;;;;;;;14.30;2.58;;;;;;;12.21;76.54;100610.42;1746706;82;21250;-38
2022/09/11 03:31:50;;;;;;;6.37;2.30;;;;;;;12.18;75.91;100610.50;1746714;82;20967;-38
2022/09/11 03:34:18;;;;;;;6.85;2.10;;;;;;;12.21;75.50;100610.42;1746817;82;20881;-37
2022/09/11 03:36:46;;;;;;;13.05;2.00;;;;;;;12.22;75.78;100597.85;1746683;82;20877;-38
2022/09/11 03:39:15;;;;;;;8.65;1.95;;;;;;;12.24;75.08;100592.64;1746858;82;20937;-38
2022/09/11 03:41:41;;;;;;;7.62;1.92;;;;;;;12.26;74.11;100601.24;1747114;82;21500;-38
2022/09/11 03:44:08;;;;;;;8.00;1.98;;;;;;;12.30;73.63;100601.15;1746679;82;20968;-38
2022/09/11 03:46:35;;;;;;;5.90;2.00;;;;;;;12.35;73.23;100596.70;1746709;81;20960;-38
2022/09/11 03:49:01;;;;;;;3.50;1.57;;;;;;;12.39;72.63;100595.32;1746777;82;20995;-38
2022/09/11 03:51:30;;;;;;;11.30;2.20;;;;;;;12.43;72.75;100594.35;1746652;82;21027;-38
2022/09/11 03:54:00;;;;;;;9.78;2.30;;;;;;;12.44;73.32;100587.84;1746721;82;22157;-37
2022/09/11 03:56:28;;;;;;;8.80;2.22;;;;;;;12.45;73.62;100582.19;1746690;82;20913;-38
2022/09/11 03:58:56;;;;;;;4.53;2.20;;;;;;;12.45;74.03;100582.19;1746981;82;21404;-38
2022/09/11 04:01:23;;;;;;;8.30;1.95;;;;;;;12.43;74.84;100581.38;1746661;80;21004;-38
2022/09/11 04:03:52;;;;;;;12.58;2.33;;;;;;;12.42;75.26;100582.27;1746693;82;20980;-37
2022/09/11 04:06:26;;;;;;;;;;;;;;;12.39;75.10;100587.53;1747929;82;21235;-38
2022/09/11 04:08:54;;;;;;;15.60;2.50;;;;;;;12.38;75.42;100597.51;1720650;82;20118;-38
2022/09/11 04:11:21;;;;;;;20.92;3.37;;;;;;;12.36;75.26;100602.72;1746721;82;20972;-38
2022/09/11 04:13:50;;;;;;;13.00;2.90;;;;;;;12.35;75.72;100599.29;1746683;82;20984;-38
2022/09/11 04:16:18;;;;;;;16.82;2.72;;;;;;;12.34;76.76;100602.77;1746733;80;20960;-38
2022/09/11 04:18:48;;;;;;;11.30;1.90;;;;;;;12.31;77.67;100598.09;1726023;82;21168;-38
2022/09/11 04:21:16;;;;;;;12.73;2.72;;;;;;;12.28;76.77;100597.73;1746680;82;20995;-38
2022/09/11 04:23:44;;;;;;;14.73;2.40;;;;;;;12.29;77.90;100595.55;1725576;82;20944;-38
2022/09/11 04:26:19;;;;;;;11.22;2.30;;;;;;;12.26;79.21;100593.03;1746558;82;20949;-38
2022/09/11 04:28:47;;;;;;;9.13;2.20;;;;;;;12.20;79.96;100591.84;1725716;82;21516;-38
2022/09/11 04:31:16;;;;;;;24.67;3.08;;;;;;;12.15;80.54;100590.67;1746712;80;21866;-38
2022/09/11 04:33:43;;;;;;;11.68;2.58;;;;;;;12.10;80.30;100585.17;1746607;82;21390;-38
2022/09/11 04:36:17;;;;;;;11.33;2.67;;;;;;;12.05;80.64;100587.44;1746767;82;20926;-38
2022/09/11 04:38:45;;;;;;;10.18;2.37;;;;;;;12.02;82.00;100581.02;1746661;80;20999;-38
2022/09/11 04:41:13;;;;;;;15.93;2.42;;;;;;;11.95;82.72;100588.94;1746798;80;20999;-38
2022/09/11 04:43:41;;;;;;;14.33;2.37;;;;;;;11.88;83.93;100595.99;1746602;81;21502;-38
2022/09/11 04:46:13;;;;;;;12.03;2.40;;;;;;;11.78;85.18;100599.22;1725785;82;20893;-38
2022/09/11 04:48:48;;;;;;;14.38;2.30;;;;;;;11.69;86.60;100607.20;1746735;82;21027;-38
2022/09/11 04:51:24;;;;;;;8.15;2.67;;;;;;;11.57;87.46;100601.36;1746839;82;20933;-38
2022/09/11 04:53:52;;;;;;;4.97;2.12;;;;;;;11.49;89.48;100602.84;1746664;81;20971;-37
2022/09/11 04:56:22;;;;;;;7.17;1.90;;;;;;;11.43;90.34;100595.63;1746510;82;21142;-37
2022/09/11 04:58:55;;;;;;;8.08;2.35;;;;;;;11.38;91.39;100589.22;1746805;82;21470;-37
2022/09/11 05:01:24;;;;;;;14.38;2.25;;;;;;;11.35;92.62;100578.92;1745241;82;20977;-37
2022/09/11 05:03:55;;;;;;;10.53;2.52;;;;;;;11.30;93.97;100585.94;1725670;82;20972;-37
2022/09/11 05:06:22;;;;;;;9.43;2.42;;;;;;;11.25;94.66;100573.52;1746531;81;20936;-37
2022/09/11 05:08:49;;;;;;;6.40;2.02;;;;;;;11.22;95.52;100567.94;1746552;81;21240;-37
2022/09/11 05:11:21;;;;;;;7.25;2.20;;;;;;;11.20;95.58;100558.05;1746600;81;20937;-37
2022/09/11 05:13:48;;;;;;;11.15;2.20;;;;;;;11.18;96.70;100555.47;1725519;82;20959;-37
2022/09/11 05:16:16;;;;;;;4.20;2.62;;;;;;;11.17;95.16;100556.36;1746681;82;20944;-37
2022/09/11 05:18:50;;;;;;;11.35;2.98;;;;;;;11.20;96.03;100547.69;1746698;82;21403;-37
2022/09/11 05:21:18;;;;;;;10.33;2.53;;;;;;;11.21;96.78;100539.03;1747055;80;21116;-37
2022/09/11 05:23:47;;;;;;;10.75;2.60;;;;;;;11.18;95.94;100555.47;1746855;82;21156;-37
2022/09/11 05:26:18;;;;;;;9.90;2.70;;;;;;;11.18;96.42;100548.16;1746509;82;21441;-37
2022/09/11 05:28:45;;;;;;;8.73;2.27;;;;;;;11.17;96.91;100555.06;1746490;82;20889;-37
2022/09/11 05:31:15;;;;;;;11.10;2.55;;;;;;;11.15;97.31;100546.93;1746803;82;20967;-37
2022/09/11 05:33:46;;;;;;;10.40;2.35;;;;;;;11.12;97.16;100547.83;1746758;82;21136;-37
2022/09/11 05:36:14;;;;;;;15.43;2.37;;;;;;;11.12;97.27;100548.28;1746407;81;21683;-37
2022/09/11 05:38:42;;;;;;;14.83;2.20;;;;;;;11.11;97.43;100553.89;1746615;82;20885;-37
2022/09/11 05:41:11;;;;;;;12.93;2.15;;;;;;;11.10;97.63;100552.19;1725879;82;21022;-37
2022/09/11 05:43:39;;;;;;;25.85;2.60;;;;;;;11.11;96.70;100551.73;1725598;82;20968;-37
2022/09/11 05:46:06;;;;;;;5.03;1.72;;;;;;;11.12;97.71;100549.13;1746737;80;21154;-37
2022/09/11 05:48:39;;;;;;;11.57;1.95;;;;;;;11.11;98.20;100556.48;1746831;82;20892;-37
2022/09/11 05:51:15;;;;;;;10.10;2.10;;;;;;;11.11;99.25;100558.20;1745477;82;20929;-38
2022/09/11 05:53:42;;;;;;;6.08;2.08;;;;;;;11.07;99.83;100559.56;1746545;80;21486;-37
2022/09/11 05:56:15;;;;;;;7.22;1.75;;;;;;;11.05;100.00;100562.63;1746651;81;20928;-37
2022/09/11 05:58:43;;;;;;;3.05;1.82;;;;;;;11.01;100.00;100560.98;1746900;81;21538;-38
2022/09/11 06:01:25;;;;;;;6.80;2.02;;;;;;;10.97;100.00;100557.17;1746641;80;21003;-38
2022/09/11 06:03:54;;;;;;;4.92;1.87;;;;;;;10.93;100.00;100555.09;1746555;81;20925;-39
2022/09/11 06:06:23;;;;;;;4.33;1.65;;;;;;;10.87;100.00;100548.28;1758225;81;20937;-38
2022/09/11 06:08:51;;;;;;;6.15;1.70;;;;;;;10.81;100.00;100547.11;1762957;80;20972;-39
2022/09/11 06:11:19;;;;;;;4.92;2.00;;;;;;;10.75;100.00;100540.75;1763218;81;21329;-38
2022/09/11 06:13:47;;;;;;;9.75;2.12;;;;;;;10.70;100.00;100539.95;1762749;81;21044;-39
2022/09/11 06:16:20;;;;;;;13.80;2.47;;;;;;;10.66;100.00;100544.78;1763042;81;20964;-39
2022/09/11 06:18:49;;;;;;;17.32;3.35;;;;;;;10.59;100.00;100553.95;1763113;81;20984;-39
2022/09/11 06:21:22;;;;;;;17.52;2.58;;;;;;;10.54;100.00;100554.91;1762995;81;20968;-39
2022/09/11 06:23:51;;;;;;;14.00;2.77;;;;;;;10.45;100.00;100550.72;1762519;81;21275;-39
2022/09/11 06:26:23;;;;;;;7.10;2.12;;;;;;;10.39;100.00;100559.44;1762712;80;20989;-37
2022/09/11 06:28:51;;;;;;;6.55;1.80;;;;;;;10.32;100.00;100571.61;1762902;81;20937;-37
2022/09/11 06:31:21;;;;;;;7.33;2.17;;;;;;;10.29;100.00;100575.54;1763087;80;20981;-37
2022/09/11 06:33:49;;;;;;;3.30;2.00;;;;;;;10.25;100.00;100567.84;1763292;81;20933;-38
2022/09/11 06:36:19;;;;;;;19.07;2.65;;;;;;;10.20;100.00;100580.83;1762694;81;21059;-38
2022/09/11 06:38:46;;;;;;;9.40;2.55;;;;;;;10.17;100.00;100591.23;1763144;81;20961;-39
2022/09/11 06:41:15;;;;;;;4.42;2.22;;;;;;;10.15;100.00;100592.98;1737330;81;20933;-38
2022/09/11 06:43:42;;;;;;;6.20;2.25;;;;;;;10.14;100.00;100598.61;1763278;81;20917;-39
2022/09/11 06:46:12;;;;;;;3.65;1.75;;;;;;;10.13;100.00;100610.27;1763030;81;20975;-39
2022/09/11 06:48:40;;;;;;;2.90;2.08;;;;;;;10.13;100.00;100608.97;1763185;81;21109;-39
2022/09/11 06:51:10;;;;;;;12.23;2.20;;;;;;;10.11;100.00;100608.14;1762913;81;20965;-39
2022/09/11 06:53:39;;;;;;;6.62;1.90;;;;;;;10.10;100.00;100607.72;1763061;81;20988;-39
2022/09/11 06:56:12;;;;;;;3.12;2.12;;;;;;;10.09;100.00;100602.13;1763194;81;21498;-37
2022/09/11 06:58:40;;;;;;;5.50;2.17;;;;;;;10.08;100.00;100605.14;1763063;81;20957;-36
2022/09/11 07:01:11;;;;;;;2.45;2.10;;;;;;;10.05;100.00;100599.59;1763181;81;21244;-36
2022/09/11 07:03:44;;;;;;;5.80;2.22;;;;;;;10.03;100.00;100594.02;1724402;81;20910;-38
2022/09/11 07:06:16;;;;;;;4.20;2.10;;;;;;;9.97;100.00;100596.23;1763196;81;20929;-38
2022/09/11 07:08:43;;;;;;;10.23;2.35;;;;;;;9.94;100.00;100599.32;1763314;80;21036;-37
2022/09/11 07:11:13;;;;;;;7.22;1.82;;;;;;;9.91;100.00;100606.67;1762839;81;21502;-37
2022/09/11 07:13:40;;;;;;;4.45;2.05;;;;;;;9.90;100.00;100604.96;1763180;81;22055;-37
2022/09/11 07:16:09;;;;;;;3.98;1.87;;;;;;;9.87;100.00;100603.30;1762857;81;20964;-37
2022/09/11 07:18:40;;;;;;;6.47;2.17;;;;;;;9.87;100.00;100614.92;1763043;81;20964;-37
2022/09/11 07:21:22;;;;;;;3.83;2.30;;;;;;;9.85;100.00;100614.52;1763121;81;20889;-37
2022/09/11 07:23:56;;;;;;;13.72;1.67;;;;;;;9.85;100.00;100619.27;1763113;81;21077;-37
2022/09/11 07:26:25;;;;;;;4.00;1.75;;;;;;;9.84;100.00;100620.56;1763234;81;21450;-37
2022/09/11 07:28:54;;;;;;;7.72;2.08;;;;;;;9.83;100.00;100624.86;1737015;81;21047;-37
2022/09/11 07:31:25;;;;;;;4.45;2.02;;;;;;;9.84;100.00;100625.73;1763126;81;21043;-37
2022/09/11 07:33:51;;;;;;;7.83;2.27;;;;;;;9.85;100.00;100627.02;1762626;81;20889;-37
2022/09/11 07:36:23;;;;;;;3.90;2.08;;;;;;;9.88;100.00;100631.28;1762861;81;20850;-37
2022/09/11 07:38:50;;;;;;;5.17;2.12;;;;;;;9.90;100.00;100633.41;1762686;81;21807;-37
2022/09/11 07:41:20;;;;;;;7.97;2.65;;;;;;;9.94;100.00;100635.07;1763041;81;21000;-37
2022/09/11 07:43:53;;;;;;;5.35;2.12;;;;;;;9.96;100.00;100626.85;1762382;81;20980;-37
2022/09/11 07:46:20;;;;;;;11.88;2.10;;;;;;;10.00;100.00;100628.55;1763085;81;21020;-37
2022/09/11 07:48:48;;;;;;;5.58;1.98;;;;;;;10.05;100.00;100621.58;1763046;81;21051;-38
2022/09/11 07:51:22;;;;;;;6.42;2.00;;;;;;;10.10;100.00;100617.61;1763156;81;22200;-39
2022/09/11 07:53:49;;;;;;;5.45;1.80;;;;;;;10.12;100.00;100618.47;1761778;81;21060;-39
2022/09/11 07:56:22;;;;;;;7.00;2.10;;;;;;;10.20;100.00;100624.38;1763038;81;21486;-39
2022/09/11 07:58:51;;;;;;;6.75;2.30;;;;;;;10.25;100.00;100611.39;1763363;81;20980;-39
2022/09/11 08:01:21;;;;;;;2.55;1.60;;;;;;;10.27;100.00;100613.52;1736964;81;20984;-39
2022/09/11 08:03:57;;;;;;;4.55;1.80;;;;;;;10.27;100.00;100605.75;1763148;80;21379;-39
2022/09/11 08:06:23;;;;;;;8.50;2.50;;;;;;;10.27;100.00;100612.65;1762864;81;20881;-36
2022/09/11 08:08:56;;;;;;;7.85;1.90;;;;;;;10.25;100.00;100610.52;1762999;81;20898;-37
2022/09/11 08:11:23;;;;;;;5.30;1.80;;;;;;;10.27;100.00;100607.05;1762841;81;20929;-38
2022/09/11 08:13:53;;;;;;;3.08;2.10;;;;;;;10.29;100.00;100608.30;1762965;81;20960;-38
2022/09/11 08:16:23;;;;;;;4.37;3.27;;;;;;;10.30;100.00;100600.95;1763027;81;21131;-37
2022/09/11 08:18:50;;;;;;;6.15;4.53;;;;;;;10.31;100.00;100604.83;1762769;81;20898;-37
2022/09/11 08:21:18;;;;;;;3.87;2.70;;;;;;;10.29;100.00;100602.70;1763015;81;21419;-37
2022/09/11 08:23:45;;;;;;;2.83;2.27;;;;;;;10.25;100.00;100608.80;1763048;81;20938;-37
2022/09/11 08:26:16;;;;;;;5.33;2.30;;;;;;;10.21;100.00;100601.94;1763496;81;21525;-39
2022/09/11 08:28:44;;;;;;;4.92;2.60;;;;;;;10.18;100.00;100608.03;1761563;80;21119;-38
2022/09/11 08:31:12;;;;;;;5.92;2.58;;;;;;;10.11;100.00;100598.66;1762873;80;20965;-39
2022/09/11 08:33:39;;;;;;;4.95;2.40;;;;;;;10.07;100.00;100599.55;1762774;81;20933;-38
2022/09/11 08:36:09;;;;;;;9.13;2.30;;;;;;;10.03;100.00;100598.77;1762971;81;21059;-37
2022/09/11 08:38:37;;;;;;;4.20;2.20;;;;;;;9.97;100.00;100596.69;1763148;81;20953;-37
2022/09/11 08:41:16;;;;;;;9.00;1.90;;;;;;;9.95;100.00;100593.27;1762943;81;21297;-38
2022/09/11 08:43:52;;;;;;;8.68;2.22;;;;;;;9.89;100.00;100597.66;1762803;81;20921;-38
2022/09/11 08:46:22;;;;;;;8.45;3.45;;;;;;;9.85;100.00;100594.70;1762939;81;20925;-37
2022/09/11 08:49:19;;;;;;;5.25;2.50;;;;;;;9.84;100.00;100590.83;1763212;80;21555;-37
2022/09/11 08:51:47;;;;;;;4.50;2.47;;;;;;;9.81;100.00;100587.00;1763032;81;21423;-37
2022/09/11 08:54:26;;;;;;;6.65;1.82;;;;;;;9.76;100.00;100594.80;1762862;81;21220;-37
2022/09/11 08:56:52;;;;;;;3.60;2.00;;;;;;;9.72;100.00;100590.55;1762998;81;20881;-38
2022/09/11 08:59:55;;;;;;;4.28;2.02;;;;;;;9.70;100.00;100595.72;1762973;81;20925;-38
2022/09/11 09:02:46;;;;;;;6.70;2.02;;;;;;;9.67;100.00;100585.42;1763066;80;21439;-37
2022/09/11 09:05:55;;;;;;;6.97;2.20;;;;;;;9.63;100.00;100576.01;1742729;81;20913;-38
2022/09/11 09:08:57;;;;;;;4.60;1.72;;;;;;;9.58;100.00;100561.00;1762981;81;21102;-38
2022/09/11 09:11:43;;;;;;;4.97;2.12;;;;;;;9.48;100.00;100563.71;1762690;80;20929;-38
2022/09/11 09:14:21;;;;;;;7.28;2.37;;;;;;;9.46;100.00;100555.55;1737184;81;20972;-37
2022/09/11 09:17:20;;;;;;;6.78;2.47;;;;;;;9.46;100.00;100552.96;1763472;80;20972;-38
2022/09/11 09:20:02;;;;;;;10.18;2.47;;;;;;;9.50;100.00;100539.13;1735968;81;20945;-38
2022/09/11 09:22:52;;;;;;;5.17;2.50;;;;;;;9.53;100.00;100528.75;1762985;81;21219;-37
2022/09/11 09:25:22;;;;;;;3.33;2.42;;;;;;;9.54;100.00;100522.70;1762797;81;20885;-38
2022/09/11 09:27:54;;;;;;;6.40;2.45;;;;;;;9.57;100.00;100532.16;1762806;81;20897;-37
2022/09/11 09:30:26;;;;;;;5.65;2.30;;;;;;;9.57;100.00;100529.13;1760927;81;20933;-37
2022/09/11 09:33:18;;;;;;;6.67;2.35;;;;;;;9.61;100.00;100524.36;1762638;80;20956;-37
2022/09/11 09:35:47;;;;;;;6.10;2.20;;;;;;;9.66;100.00;100517.81;1730491;81;21279;-38
2022/09/11 09:38:20;;;;;;;5.58;2.25;;;;;;;9.77;100.00;100523.70;1762699;80;20870;-37
2022/09/11 09:41:26;;;;;;;8.78;2.35;;;;;;;9.88;100.00;100518.80;1763099;81;20952;-37
2022/09/11 09:44:26;;;;;;;6.60;1.72;;;;;;;9.96;100.00;100518.70;1763070;80;20929;-38
2022/09/11 09:46:54;;;;;;;6.40;2.17;;;;;;;10.09;100.00;100510.31;1762920;81;20921;-37
2022/09/11 09:49:33;;;;;;;3.75;2.40;;;;;;;10.25;100.00;100506.61;1763072;81;22053;-37
2022/09/11 09:52:04;;;;;;;2.42;2.00;;;;;;;10.37;100.00;100499.09;1762841;81;20894;-37
2022/09/11 09:54:32;;;;;;;5.30;3.00;;;;;;;10.44;100.00;100502.44;1762030;81;20937;-37
2022/09/11 09:57:03;;;;;;;6.15;2.25;;;;;;;10.51;100.00;100500.18;1762745;81;20965;-38
2022/09/11 09:59:38;;;;;;;3.25;1.82;;;;;;;10.57;100.00;100493.59;1763129;81;21059;-37
2022/09/11 10:02:05;;;;;;;8.03;2.70;;;;;;;10.59;100.00;100487.08;1763159;81;22065;-37
2022/09/11 10:04:31;;;;;;;3.65;1.87;;;;;;;10.60;100.00;100485.77;1762836;81;20976;-37
2022/09/11 10:07:12;;;;;;;6.20;1.77;;;;;;;10.59;100.00;100484.48;1762904;81;21012;-37
2022/09/11 10:09:48;;;;;;;6.60;2.45;;;;;;;10.58;100.00;100478.48;1762615;81;20952;-37
2022/09/11 10:12:24;;;;;;;2.45;1.70;;;;;;;10.54;100.00;100491.06;1763134;81;20961;-38
2022/09/11 10:14:54;;;;;;;5.12;2.52;;;;;;;10.55;100.00;100485.00;1763056;81;21175;-37
2022/09/11 10:17:34;;;;;;;2.92;2.30;;;;;;;10.62;100.00;100493.06;1763353;81;21443;-37
2022/09/11 10:20:18;;;;;;;7.37;3.08;;;;;;;10.74;100.00;100498.46;1761272;81;20890;-38
2022/09/11 10:22:45;;;;;;;2.42;2.22;;;;;;;10.88;100.00;100499.50;1762788;81;21537;-38
2022/09/11 10:25:15;;;;;;;5.72;2.27;;;;;;;11.00;100.00;100494.52;1763317;80;21561;-38
2022/09/11 10:28:07;;;;;;;2.62;2.22;;;;;;;11.08;100.00;100496.97;1763007;81;21094;-38
2022/09/11 10:30:46;;;;;;;8.48;2.40;;;;;;;11.17;100.00;100497.23;1762863;81;21472;-39
2022/09/11 10:33:18;;;;;;;4.12;1.72;;;;;;;11.20;100.00;100491.52;1762244;81;20980;-37
2022/09/11 10:35:54;;;;;;;2.20;2.02;;;;;;;11.23;100.00;100488.03;1763096;81;20937;-37
2022/09/11 10:38:30;;;;;;;3.40;2.40;;;;;;;11.23;100.00;100489.33;1763529;81;20933;-37
2022/09/11 10:41:08;;;;;;;2.37;2.20;;;;;;;11.23;100.00;100481.98;1762919;81;21326;-37
2022/09/11 10:44:02;;;;;;;6.28;2.10;;;;;;;11.24;100.00;100473.31;1759158;81;20980;-38
2022/09/11 10:46:41;;;;;;;3.40;2.17;;;;;;;11.27;100.00;100476.71;1762930;81;20936;-38
2022/09/11 10:49:20;;;;;;;7.97;2.00;;;;;;;11.33;100.00;100474.44;1763082;81;20945;-38
2022/09/11 10:52:05;;;;;;;5.42;2.05;;;;;;;11.39;100.00;100473.47;1763116;81;21060;-37
2022/09/11 10:54:58;;;;;;;7.50;2.22;;;;;;;11.42;100.00;100472.09;1763202;81;21257;-38
2022/09/11 10:57:45;;;;;;;5.42;2.05;;;;;;;11.46;100.00;100468.55;1763071;81;21475;-38
2022/09/11 11:00:28;;;;;;;4.28;2.12;;;;;;;11.55;100.00;100463.61;1763144;81;21011;-38
2022/09/11 11:03:15;;;;;;;5.17;1.95;;;;;;;11.58;100.00;100446.69;1762914;80;20969;-38
2022/09/11 11:06:24;;;;;;;5.50;2.10;;;;;;;11.56;100.00;100448.46;1763182;81;21020;-38
2022/09/11 11:09:11;;;;;;;6.60;2.40;;;;;;;11.52;100.00;100456.74;1746862;81;21114;-38
2022/09/11 11:12:23;;;;;;;6.92;4.03;;;;;;;11.48;100.00;100458.53;1746581;82;21443;-38
2022/09/11 11:15:20;;;;;;;13.90;5.55;;;;;;;11.45;100.00;100451.29;1746531;82;20980;-38
2022/09/11 11:18:22;;;;;;;12.50;6.10;;;;;;;11.41;100.00;100457.44;1704991;83;21065;-38
2022/09/11 11:21:09;;;;;;;7.22;3.77;;;;;;;11.39;100.00;100450.14;1704435;83;20939;-38
2022/09/11 11:24:11;;;;;;;6.95;2.52;;;;;;;11.39;100.00;100460.51;1736560;82;21158;-37
2022/09/11 11:26:56;;;;;;;11.68;3.50;;;;;;;11.41;100.00;100458.27;1746709;80;21011;-38
2022/09/11 11:29:40;;;;;;;5.50;2.70;;;;;;;11.44;100.00;100444.41;1746757;81;20980;-37
2022/09/11 11:32:16;;;;;;;8.15;2.70;;;;;;;11.44;100.00;100446.54;1746662;82;20995;-37
2022/09/11 11:35:16;;;;;;;8.35;2.98;;;;;;;11.42;100.00;100455.25;1746928;82;21011;-37
2022/09/11 11:37:44;;;;;;;8.15;2.83;;;;;;;11.43;100.00;100443.54;1746779;82;21147;-37
2022/09/11 11:40:31;;;;;;;6.42;2.60;;;;;;;11.41;100.00;100447.91;1750349;81;20968;-37
2022/09/11 11:43:06;;;;;;;5.17;2.92;;;;;;;11.43;100.00;100440.95;1746845;82;20936;-37
2022/09/11 11:45:49;;;;;;;9.75;3.33;;;;;;;11.45;100.00;100433.98;1747063;81;20921;-37
2022/09/11 11:48:31;;;;;;;6.35;3.72;;;;;;;11.41;100.00;100416.80;1746811;82;21418;-37
2022/09/11 11:51:02;;;;;;;15.10;8.43;;;;;;;11.39;100.00;100419.04;1746973;82;21109;-37
2022/09/11 11:53:39;;;;;;;10.80;4.15;;;;;;;11.31;100.00;100410.97;1746593;81;21030;-37